Time;durP1;ratioP1;P1;durP2;ratioP2;P2;SDS_P1;SDS_P2;PMS_P1;PMS_P2;Temp;Humidity;BMP_temperature;BMP_pressure;BME280_temperature;BME280_humidity;BME280_pressure;Samples;Min_cycle;Max_cycle;Signal;HPM_P1;HPM_P2
2023/07/05 00:01:28;;;;;;;3.42;2.40;;;;;;;18.98;100.00;99657.72;8380014;28;20036;-62
2023/07/05 00:05:29;;;;;;;6.72;2.95;;;;;;;19.00;100.00;99656.44;8384004;28;20045;-62
2023/07/05 00:09:29;;;;;;;5.15;3.10;;;;;;;19.11;100.00;99653.06;8409623;28;20033;-62
2023/07/05 00:13:29;;;;;;;10.93;3.28;;;;;;;19.11;100.00;99647.56;8381783;28;20111;-62
2023/07/05 00:17:32;;;;;;;7.18;2.55;;;;;;;19.16;100.00;99645.00;8383134;28;20544;-62
2023/07/05 00:21:34;;;;;;;4.28;2.65;;;;;;;19.17;100.00;99634.88;8385311;28;20043;-62
2023/07/05 00:25:34;;;;;;;6.95;3.00;;;;;;;19.16;100.00;99623.06;8381196;28;20127;-62
2023/07/05 00:29:35;;;;;;;4.78;2.20;;;;;;;19.10;100.00;99623.13;8382981;28;20041;-62
2023/07/05 00:33:35;;;;;;;6.60;3.08;;;;;;;19.01;100.00;99597.03;8383775;28;20082;-62
2023/07/05 00:37:35;;;;;;;4.20;2.67;;;;;;;18.96;100.00;99599.56;8382166;28;20029;-62
2023/07/05 00:41:36;;;;;;;3.63;2.63;;;;;;;18.98;100.00;99587.34;8382895;28;20033;-62
2023/07/05 00:50:00;;;;;;;5.07;2.53;;;;;;;18.92;100.00;99565.44;8348067;27;20961;-62
2023/07/05 00:54:04;;;;;;;8.15;3.30;;;;;;;18.92;100.00;99588.22;8330624;28;20037;-62
2023/07/05 00:58:05;;;;;;;7.32;2.65;;;;;;;18.92;100.00;99576.41;8329287;28;20054;-62
2023/07/05 01:02:06;;;;;;;4.15;2.63;;;;;;;18.91;100.00;99563.78;8327433;28;20526;-62
2023/07/05 01:06:07;;;;;;;6.80;3.05;;;;;;;18.84;100.00;99558.31;8328659;28;20034;-62
2023/07/05 01:10:21;;;;;;;4.20;2.28;;;;;;;18.98;100.00;99557.22;8330602;28;20124;-62
2023/07/05 01:18:48;;;;;;;4.90;2.40;;;;;;;19.00;100.00;99557.81;8299880;28;20487;-62
2023/07/05 01:23:20;;;;;;;3.08;2.17;;;;;;;18.98;100.00;99549.00;8269399;28;20042;-62
2023/07/05 01:27:54;;;;;;;5.25;2.10;;;;;;;19.13;100.00;99549.53;8305728;28;20041;-62
2023/07/05 01:32:03;;;;;;;5.45;1.48;;;;;;;19.31;100.00;99538.72;8297241;28;20100;-62
2023/07/05 01:36:04;;;;;;;3.25;1.80;;;;;;;19.27;100.00;99536.63;8291814;28;20069;-62
2023/07/05 01:44:28;;;;;;;2.92;1.67;;;;;;;19.25;100.00;99547.78;8387272;27;20398;-62
2023/07/05 01:48:56;;;;;;;3.88;2.00;;;;;;;19.22;100.00;99539.16;8384698;28;20040;-62
2023/07/05 01:53:12;;;;;;;4.65;1.90;;;;;;;19.16;100.00;99529.09;8400065;27;20123;-62
2023/07/05 01:57:22;;;;;;;3.83;1.60;;;;;;;19.16;100.00;99518.13;8381047;27;20041;-61
2023/07/05 02:01:26;;;;;;;3.63;2.00;;;;;;;19.16;100.00;99507.97;8380942;28;20054;-61
2023/07/05 02:05:29;;;;;;;6.88;2.50;;;;;;;19.07;100.00;99506.59;8382757;28;20075;-61
2023/07/05 02:09:35;;;;;;;12.80;2.60;;;;;;;18.98;100.00;99507.91;8398868;27;20040;-60
2023/07/05 02:13:36;;;;;;;5.30;2.38;;;;;;;18.91;100.00;99512.56;8397329;27;20098;-62
2023/07/05 02:17:36;;;;;;;8.60;2.38;;;;;;;18.94;100.00;99514.84;8402544;27;20032;-62
2023/07/05 02:21:37;;;;;;;5.43;1.90;;;;;;;19.00;100.00;99508.50;8399543;27;20111;-62
2023/07/05 02:25:38;;;;;;;6.32;2.25;;;;;;;19.14;100.00;99504.66;8398897;27;20045;-62
2023/07/05 02:29:38;;;;;;;6.15;2.20;;;;;;;19.13;100.00;99519.38;8399218;27;20047;-62
2023/07/05 02:33:40;;;;;;;3.97;1.50;;;;;;;19.05;100.00;99511.44;8377349;27;20040;-62
2023/07/05 02:37:41;;;;;;;5.47;1.60;;;;;;;18.91;100.00;99523.50;8384443;27;20076;-62
2023/07/05 02:41:41;;;;;;;3.47;1.27;;;;;;;18.82;100.00;99524.81;8380640;27;20042;-62
2023/07/05 02:45:42;;;;;;;3.38;0.90;;;;;;;18.73;100.00;99531.59;8384404;27;20479;-62
2023/07/05 02:49:42;;;;;;;1.17;0.80;;;;;;;18.61;100.00;99543.44;8382442;28;20063;-62
2023/07/05 02:53:42;;;;;;;1.23;0.77;;;;;;;18.50;100.00;99539.50;8371544;27;20172;-61
2023/07/05 02:57:43;;;;;;;1.50;0.82;;;;;;;18.40;100.00;99555.53;8361053;28;20067;-62
2023/07/05 03:01:43;;;;;;;1.48;0.70;;;;;;;18.36;100.00;99575.28;8358361;28;20053;-62
2023/07/05 03:05:57;;;;;;;5.68;1.65;;;;;;;18.45;100.00;99580.34;8362208;28;20516;-62
2023/07/05 03:09:58;;;;;;;2.95;0.88;;;;;;;18.40;100.00;99590.25;8360067;28;20036;-62
2023/07/05 03:13:58;;;;;;;3.00;0.80;;;;;;;18.31;98.32;99583.28;8359836;28;20045;-62
2023/07/05 03:17:59;;;;;;;3.67;1.17;;;;;;;18.27;95.74;99602.00;8374865;28;20143;-62
2023/07/05 03:21:59;;;;;;;1.63;1.08;;;;;;;18.19;95.92;99601.41;8372110;28;20037;-62
2023/07/05 03:26:03;;;;;;;1.83;0.82;;;;;;;18.12;94.74;99606.91;8357718;28;20037;-61
2023/07/05 03:30:04;;;;;;;1.65;0.70;;;;;;;18.05;95.65;99619.72;8361488;28;20063;-61
2023/07/05 03:34:04;;;;;;;2.25;1.05;;;;;;;18.07;94.23;99628.56;8355344;28;20037;-61
2023/07/05 03:38:05;;;;;;;3.22;1.27;;;;;;;17.99;95.72;99631.47;8360174;28;20040;-61
2023/07/05 03:42:05;;;;;;;2.00;1.10;;;;;;;17.88;95.63;99648.53;8357764;28;20068;-62
2023/07/05 03:46:09;;;;;;;2.80;1.42;;;;;;;17.76;94.99;99655.66;8360204;28;20071;-61
2023/07/05 03:50:09;;;;;;;3.53;1.47;;;;;;;17.65;93.37;99669.94;8390168;28;20499;-61
2023/07/05 03:54:10;;;;;;;2.30;1.20;;;;;;;17.53;93.44;99674.31;8364222;28;20406;-62
2023/07/05 03:58:11;;;;;;;5.90;1.27;;;;;;;17.38;93.52;99681.78;8360015;28;20091;-61
2023/07/05 04:02:11;;;;;;;3.20;1.15;;;;;;;17.23;91.83;99692.06;8349339;28;20533;-62
2023/07/05 04:06:12;;;;;;;4.07;1.20;;;;;;;17.14;90.38;99685.06;8354640;28;20025;-62
2023/07/05 04:10:12;;;;;;;1.80;1.23;;;;;;;17.03;92.18;99702.00;8355829;28;20112;-61
2023/07/05 04:14:13;;;;;;;2.00;1.23;;;;;;;16.96;92.66;99698.41;8354291;28;20040;-62
2023/07/05 04:18:13;;;;;;;2.60;1.45;;;;;;;16.85;93.84;99705.28;8355969;28;20048;-61
2023/07/05 04:22:14;;;;;;;3.45;1.23;;;;;;;16.83;93.39;99720.16;8361402;28;20191;-61
2023/07/05 04:26:17;;;;;;;3.85;1.50;;;;;;;16.83;92.46;99723.72;8352543;28;20093;-62
2023/07/05 04:30:18;;;;;;;2.50;1.55;;;;;;;16.85;89.41;99734.47;8356439;28;20040;-61
2023/07/05 04:34:18;;;;;;;4.60;1.67;;;;;;;16.90;89.25;99724.63;8350456;28;20049;-62
2023/07/05 04:38:18;;;;;;;2.60;1.55;;;;;;;17.12;86.07;99730.84;8354720;28;20107;-61
2023/07/05 04:42:19;;;;;;;4.07;2.15;;;;;;;17.17;83.37;99742.84;8354813;28;20041;-62
2023/07/05 04:46:20;;;;;;;5.35;2.40;;;;;;;17.32;83.27;99737.25;8353569;28;20068;-62
2023/07/05 04:50:21;;;;;;;6.53;2.47;;;;;;;17.37;81.62;99737.50;8355806;28;20442;-62
2023/07/05 04:54:21;;;;;;;6.45;2.30;;;;;;;17.20;81.55;99738.91;8352520;28;20063;-61
2023/07/05 04:58:23;;;;;;;4.57;2.10;;;;;;;17.25;82.20;99755.50;8356072;28;20037;-61
2023/07/05 05:02:23;;;;;;;5.00;2.38;;;;;;;17.60;80.15;99743.53;8354152;28;20061;-63
2023/07/05 05:06:24;;;;;;;11.18;2.80;;;;;;;17.71;79.51;99742.91;8353833;28;20050;-63
2023/07/05 05:10:24;;;;;;;4.55;2.30;;;;;;;17.80;79.37;99741.69;8354246;28;20555;-63
2023/07/05 05:14:25;;;;;;;6.60;2.88;;;;;;;17.74;79.61;99749.88;8346063;28;20045;-63
2023/07/05 05:18:28;;;;;;;6.72;2.75;;;;;;;17.59;80.39;99748.16;8349746;28;20110;-62
2023/07/05 05:22:29;;;;;;;7.35;2.28;;;;;;;18.00;77.10;99761.75;8364851;28;20052;-63
2023/07/05 05:26:30;;;;;;;4.88;2.55;;;;;;;17.92;77.64;99764.66;8364452;28;20083;-62
2023/07/05 05:30:31;;;;;;;6.07;3.08;;;;;;;17.97;76.06;99764.91;8352042;28;20037;-63
2023/07/05 05:34:31;;;;;;;6.55;2.70;;;;;;;17.65;75.69;99765.59;8351592;28;20042;-63
2023/07/05 05:38:34;;;;;;;4.57;2.25;;;;;;;17.84;75.37;99773.03;8354443;28;20037;-65
2023/07/05 05:42:36;;;;;;;3.97;2.40;;;;;;;18.14;74.25;99763.44;8353482;28;20510;-63
2023/07/05 05:46:36;;;;;;;8.25;2.65;;;;;;;18.33;72.41;99779.06;8351659;28;20046;-63
2023/07/05 05:50:37;;;;;;;6.18;2.15;;;;;;;18.61;72.54;99770.69;8376941;28;20128;-63
2023/07/05 05:54:37;;;;;;;6.63;2.50;;;;;;;18.61;71.93;99771.56;8351722;28;20044;-63
2023/07/05 05:58:38;;;;;;;2.90;1.92;;;;;;;18.48;71.30;99793.44;8351036;28;20092;-63
2023/07/05 06:02:38;;;;;;;6.22;2.28;;;;;;;18.16;71.21;99805.13;8355002;28;20503;-63
2023/07/05 06:06:39;;;;;;;4.35;1.60;;;;;;;17.84;72.92;99815.97;8353117;28;20123;-63
2023/07/05 06:10:39;;;;;;;3.72;2.00;;;;;;;17.71;74.53;99800.34;8349508;28;20483;-62
2023/07/05 06:14:40;;;;;;;4.57;2.50;;;;;;;17.71;74.50;99811.28;8355728;28;20032;-62
2023/07/05 06:18:41;;;;;;;2.65;2.10;;;;;;;17.91;74.20;99817.69;8352249;28;20041;-63
2023/07/05 06:22:42;;;;;;;4.50;2.10;;;;;;;17.83;74.90;99820.59;8350513;28;20515;-62
2023/07/05 06:26:43;;;;;;;4.80;1.83;;;;;;;17.91;73.81;99834.09;8354038;28;20453;-62
2023/07/05 06:30:45;;;;;;;4.65;1.67;;;;;;;17.95;74.63;99835.34;8357840;28;20064;-63
2023/07/05 06:34:46;;;;;;;3.28;1.73;;;;;;;18.04;74.04;99827.81;8356871;28;20041;-62
2023/07/05 06:38:46;;;;;;;6.53;1.77;;;;;;;18.14;73.92;99836.50;8359130;28;20510;-62
2023/07/05 06:42:47;;;;;;;3.38;1.80;;;;;;;18.03;74.80;99832.47;8356839;28;20341;-62
2023/07/05 06:46:50;;;;;;;2.63;1.60;;;;;;;18.19;75.38;99815.66;8355550;28;20287;-63
2023/07/05 06:50:52;;;;;;;3.47;1.90;;;;;;;17.88;74.50;99828.19;8359877;28;20037;-63
2023/07/05 06:54:52;;;;;;;3.88;1.45;;;;;;;17.99;75.49;99831.16;8356619;28;20495;-62
2023/07/05 06:58:53;;;;;;;4.72;1.27;;;;;;;18.42;74.84;99851.75;8357310;28;20442;-62
2023/07/05 07:02:54;;;;;;;5.05;1.80;;;;;;;18.72;72.66;99857.69;8357195;28;20038;-63
2023/07/05 07:06:55;;;;;;;2.47;1.30;;;;;;;18.62;72.67;99855.38;8357118;28;20040;-62
2023/07/05 07:10:58;;;;;;;7.53;1.35;;;;;;;18.37;72.77;99857.00;8356217;28;20616;-62
2023/07/05 07:14:58;;;;;;;3.22;1.10;;;;;;;18.46;72.92;99861.25;8356880;28;20053;-62
2023/07/05 07:18:59;;;;;;;5.20;1.20;;;;;;;18.54;72.07;99863.78;8356383;28;20503;-62
2023/07/05 07:23:00;;;;;;;3.03;1.00;;;;;;;18.41;72.22;99860.16;8358235;28;20124;-62
2023/07/05 07:27:00;;;;;;;3.67;0.90;;;;;;;18.34;71.50;99862.88;8355219;28;20087;-62
2023/07/05 07:31:11;;;;;;;2.47;0.75;;;;;;;18.50;71.74;99875.34;8353177;28;20305;-62
2023/07/05 07:35:12;;;;;;;2.13;0.80;;;;;;;19.09;70.88;99885.31;8354883;28;20047;-62
2023/07/05 07:39:13;;;;;;;1.65;0.70;;;;;;;19.11;70.22;99888.72;8357684;28;20040;-62
2023/07/05 07:43:14;;;;;;;2.50;1.05;;;;;;;19.48;68.82;99901.78;8354572;28;20040;-62
2023/07/05 07:47:14;;;;;;;1.45;0.68;;;;;;;19.25;69.51;99906.81;8356430;28;20045;-62
2023/07/05 07:51:15;;;;;;;2.35;1.10;;;;;;;18.74;70.42;99913.97;8356580;28;20090;-62
2023/07/05 07:55:16;;;;;;;3.78;1.33;;;;;;;18.79;70.50;99916.91;8355109;28;20037;-62
2023/07/05 07:59:16;;;;;;;5.30;0.80;;;;;;;18.80;71.10;99928.72;8357480;28;20040;-63
2023/07/05 08:03:17;;;;;;;2.00;0.80;;;;;;;19.17;69.14;99926.25;8352571;28;20044;-62
2023/07/05 08:07:18;;;;;;;6.60;1.08;;;;;;;19.46;67.74;99949.69;8355899;28;20044;-63
2023/07/05 08:11:18;;;;;;;3.17;0.80;;;;;;;19.29;67.66;99941.03;8357481;28;20044;-62
2023/07/05 08:15:19;;;;;;;5.77;0.80;;;;;;;19.77;66.07;99960.84;8355812;28;20053;-62
2023/07/05 08:19:20;;;;;;;3.55;0.93;;;;;;;19.66;66.04;99957.88;8355532;28;20279;-62
2023/07/05 08:23:21;;;;;;;3.00;0.95;;;;;;;19.78;65.63;99967.16;8354094;28;20430;-62
2023/07/05 08:27:21;;;;;;;3.58;0.90;;;;;;;19.70;65.63;99967.38;8355886;28;20036;-63
2023/07/05 08:31:23;;;;;;;3.40;0.90;;;;;;;19.66;65.63;99957.88;8351381;28;20075;-62
2023/07/05 08:35:23;;;;;;;2.67;0.80;;;;;;;19.39;66.49;99985.31;8353778;28;20090;-62
2023/07/05 08:39:24;;;;;;;6.28;0.90;;;;;;;19.33;66.13;99983.41;8353784;28;20523;-62
2023/07/05 08:43:42;;;;;;;5.90;0.90;;;;;;;19.33;66.47;99996.25;8353373;28;20044;-62
2023/07/05 08:47:54;;;;;;;5.03;1.38;;;;;;;19.40;65.23;99995.22;8353039;28;20536;-63
2023/07/05 08:51:56;;;;;;;5.18;0.77;;;;;;;19.73;65.03;100002.63;8351556;28;20029;-63
2023/07/05 08:56:09;;;;;;;10.95;1.85;;;;;;;20.06;63.76;100003.44;8351767;28;20037;-62
2023/07/05 09:00:16;;;;;;;2.83;0.68;;;;;;;20.49;62.20;100010.94;8352270;28;20052;-62
2023/07/05 09:04:24;;;;;;;25.30;2.47;;;;;;;20.50;62.39;100014.53;8351028;28;20040;-62
2023/07/05 09:08:44;;;;;;;33.88;4.00;;;;;;;20.75;61.88;100026.47;8353449;28;20246;-62
2023/07/05 09:13:09;;;;;;;9.48;1.20;;;;;;;21.05;60.70;100027.63;8349411;28;20420;-62
2023/07/05 09:17:22;;;;;;;3.05;1.00;;;;;;;21.25;59.90;100034.69;8350954;28;20124;-62
2023/07/05 09:25:40;;;;;;;6.20;1.10;;;;;;;21.87;60.20;100022.84;8334517;27;20393;-62
2023/07/05 09:29:51;;;;;;;9.15;1.02;;;;;;;21.47;58.91;100046.16;8329495;28;20092;-62
2023/07/05 09:34:17;;;;;;;9.45;1.20;;;;;;;21.68;58.57;100061.50;8324790;28;20033;-62
2023/07/05 09:38:32;;;;;;;3.75;0.80;;;;;;;21.59;57.98;100055.41;8331086;28;20519;-62
2023/07/05 09:42:47;;;;;;;4.75;0.95;;;;;;;21.37;59.40;100065.06;8324363;28;20423;-61
2023/07/05 09:46:49;;;;;;;3.30;1.25;;;;;;;21.53;58.56;100075.53;8329562;28;20095;-61
2023/07/05 09:50:51;;;;;;;6.78;1.00;;;;;;;21.61;57.61;100083.53;8329840;28;20478;-62
2023/07/05 09:54:59;;;;;;;4.80;1.10;;;;;;;21.38;57.33;100081.34;8328370;28;20121;-62
2023/07/05 09:59:13;;;;;;;7.00;1.05;;;;;;;21.47;57.90;100076.44;8329213;28;20060;-61
2023/07/05 10:03:15;;;;;;;3.90;0.90;;;;;;;22.14;56.38;100090.34;8327411;28;20132;-62
2023/07/05 10:07:17;;;;;;;11.07;1.55;;;;;;;22.53;56.01;100090.00;8327766;28;20041;-62
2023/07/05 10:11:24;;;;;;;2.92;0.98;;;;;;;22.54;55.03;100094.41;8328345;28;20497;-62
2023/07/05 10:15:24;;;;;;;5.15;0.90;;;;;;;22.44;54.76;100096.81;8305407;28;20042;-61
2023/07/05 10:19:30;;;;;;;5.45;0.85;;;;;;;22.92;53.39;100100.56;8296772;28;20052;-61
2023/07/05 10:23:32;;;;;;;8.32;1.38;;;;;;;22.47;54.73;100103.78;8328020;28;20041;-62
2023/07/05 10:27:36;;;;;;;6.82;1.20;;;;;;;22.71;53.78;100114.81;8328998;28;20542;-62
2023/07/05 10:31:37;;;;;;;3.87;1.03;;;;;;;24.25;50.61;100107.59;8323736;28;20038;-62
2023/07/05 10:35:45;;;;;;;10.40;1.10;;;;;;;25.12;49.82;100110.19;8328926;28;20288;-62
2023/07/05 10:39:46;;;;;;;8.48;1.25;;;;;;;23.94;50.38;100118.91;8307549;28;20038;-63
2023/07/05 10:43:53;;;;;;;5.15;1.63;;;;;;;24.97;49.14;100126.44;8306693;28;20087;-63
2023/07/05 10:47:53;;;;;;;8.18;1.20;;;;;;;26.28;46.88;100130.75;8306589;28;20507;-62
2023/07/05 10:52:00;;;;;;;6.97;1.35;;;;;;;26.12;47.81;100123.28;8305420;28;20454;-62
2023/07/05 10:56:07;;;;;;;6.55;1.73;;;;;;;25.95;47.15;100139.00;8305703;28;20574;-63
2023/07/05 11:04:28;;;;;;;7.38;1.10;;;;;;;22.89;52.25;100144.31;8329319;27;20467;-62
2023/07/05 11:08:34;;;;;;;10.20;1.13;;;;;;;24.44;51.55;100140.41;8329313;28;20037;-62
2023/07/05 11:12:35;;;;;;;4.78;1.10;;;;;;;24.35;50.13;100139.09;8324644;28;20034;-62
2023/07/05 11:16:39;;;;;;;8.23;1.10;;;;;;;26.88;49.30;100138.34;8331068;28;20598;-62
2023/07/05 11:20:42;;;;;;;;;;;;;;;26.21;46.07;100126.47;8327709;28;20038;-62
2023/07/05 11:24:44;;;;;;;8.50;1.40;;;;;;;24.34;48.60;100134.63;8329039;28;20020;-63
2023/07/05 11:28:44;;;;;;;3.45;1.13;;;;;;;22.83;52.33;100148.81;8329500;28;20041;-62
2023/07/05 11:33:08;;;;;;;4.90;1.10;;;;;;;22.69;53.64;100154.72;8324658;28;20049;-62
2023/07/05 11:37:14;;;;;;;4.50;1.05;;;;;;;26.00;49.56;100169.59;8324624;28;20077;-62
2023/07/05 11:41:27;;;;;;;6.05;1.30;;;;;;;27.23;47.46;100170.22;8328734;28;20044;-62
2023/07/05 11:45:28;;;;;;;11.52;1.52;;;;;;;28.27;45.07;100160.66;8329678;28;20064;-62
2023/07/05 11:49:32;;;;;;;7.60;1.07;;;;;;;28.19;45.36;100163.91;8329755;28;20045;-62
2023/07/05 11:53:33;;;;;;;8.35;1.02;;;;;;;26.91;45.87;100168.38;8330708;28;20375;-62
2023/07/05 11:57:39;;;;;;;4.95;1.38;;;;;;;24.21;51.50;100167.19;8328569;28;20030;-62
2023/07/05 12:01:41;;;;;;;5.63;1.40;;;;;;;23.27;52.82;100186.34;8314347;28;20491;-62
2023/07/05 12:05:43;;;;;;;6.35;1.42;;;;;;;22.37;55.18;100199.91;8328653;28;20046;-62
2023/07/05 12:09:44;;;;;;;5.47;1.33;;;;;;;22.17;57.20;100208.31;8330014;28;20037;-62
2023/07/05 12:13:44;;;;;;;6.32;1.52;;;;;;;21.96;58.79;100214.16;8315377;28;20037;-62
2023/07/05 12:17:46;;;;;;;3.83;1.25;;;;;;;21.82;58.15;100212.56;8308026;28;20356;-62
2023/07/05 12:21:53;;;;;;;7.22;1.55;;;;;;;21.82;62.05;100240.09;8305522;28;20318;-62
2023/07/05 12:25:57;;;;;;;6.93;1.45;;;;;;;21.42;65.35;100244.06;8302895;28;20053;-63
2023/07/05 12:30:00;;;;;;;3.92;1.15;;;;;;;21.33;65.39;100246.22;8302523;28;20096;-62
2023/07/05 12:34:03;;;;;;;4.40;1.40;;;;;;;22.21;63.57;100250.88;8308335;28;20037;-62
2023/07/05 12:38:15;;;;;;;10.63;2.05;;;;;;;22.65;61.99;100245.25;8305087;28;20454;-62
2023/07/05 12:42:17;;;;;;;4.22;1.70;;;;;;;22.88;60.15;100242.69;8300687;28;20034;-62
2023/07/05 12:46:22;;;;;;;5.57;1.20;;;;;;;22.94;60.07;100230.75;8292287;28;20562;-62
2023/07/05 12:50:23;;;;;;;;;;;;;;;22.54;58.97;100225.88;8271639;28;20096;-63
2023/07/05 12:54:29;;;;;;;5.68;1.35;;;;;;;22.54;60.31;100226.69;8273495;28;19922;-63
2023/07/05 12:58:31;;;;;;;6.47;1.23;;;;;;;23.09;58.61;100233.19;8335322;28;20046;-63
2023/07/05 13:02:33;;;;;;;4.57;1.38;;;;;;;23.39;57.90;100230.53;8301720;28;20064;-63
2023/07/05 13:06:34;;;;;;;3.08;1.48;;;;;;;23.61;57.54;100248.31;8304731;28;20037;-62
2023/07/05 13:10:36;;;;;;;4.45;1.50;;;;;;;23.82;56.82;100240.38;8303474;28;20122;-61
2023/07/05 13:14:43;;;;;;;8.50;1.30;;;;;;;23.40;58.24;100251.53;8305280;28;20453;-61
2023/07/05 13:19:08;;;;;;;3.95;1.10;;;;;;;22.67;60.68;100254.16;8304435;28;20463;-61
2023/07/05 13:23:08;;;;;;;5.70;1.55;;;;;;;22.57;61.54;100255.75;8271523;28;20104;-61
2023/07/05 13:27:28;;;;;;;12.05;2.58;;;;;;;22.38;62.37;100253.94;8272719;28;20535;-63
2023/07/05 13:31:28;;;;;;;4.40;1.50;;;;;;;22.40;62.92;100249.91;8264971;28;20040;-63
2023/07/05 13:35:31;;;;;;;4.80;1.10;;;;;;;22.48;62.29;100230.31;8271633;28;20034;-64
2023/07/05 13:39:32;;;;;;;5.07;1.42;;;;;;;22.60;62.59;100239.56;8272194;28;20042;-63
2023/07/05 13:43:33;;;;;;;5.22;1.30;;;;;;;22.98;61.30;100234.78;8270159;28;20042;-63
2023/07/05 13:47:33;;;;;;;5.20;0.95;;;;;;;23.17;61.21;100244.75;8272334;28;20099;-64
2023/07/05 13:51:34;;;;;;;2.60;0.75;;;;;;;23.00;62.02;100251.09;8269078;28;20038;-63
2023/07/05 13:55:34;;;;;;;2.20;0.80;;;;;;;23.13;61.62;100256.47;8272983;28;20045;-63
2023/07/05 13:59:35;;;;;;;4.93;1.00;;;;;;;23.11;60.15;100259.47;8290714;28;20054;-63
2023/07/05 14:03:35;;;;;;;3.23;1.23;;;;;;;23.02;60.54;100260.81;8301802;28;20202;-63
2023/07/05 14:07:35;;;;;;;2.35;0.70;;;;;;;23.16;60.03;100262.38;8302610;28;20625;-63
2023/07/05 14:11:40;;;;;;;2.42;0.80;;;;;;;23.01;59.97;100264.66;8303755;28;20115;-63
2023/07/05 14:15:43;;;;;;;1.30;0.60;;;;;;;23.08;60.97;100259.06;8301793;28;20068;-62
2023/07/05 14:19:44;;;;;;;3.10;0.93;;;;;;;22.86;60.57;100277.94;8304455;28;20044;-62
2023/07/05 14:23:45;;;;;;;2.60;0.95;;;;;;;22.67;60.34;100278.13;8299419;28;20044;-62
2023/07/05 14:27:46;;;;;;;5.63;1.50;;;;;;;22.17;61.81;100282.66;8301468;28;20056;-62
2023/07/05 14:31:46;;;;;;;2.92;1.02;;;;;;;22.05;62.57;100284.44;8299267;28;20049;-62
2023/07/05 14:35:47;;;;;;;3.78;1.27;;;;;;;21.89;64.01;100287.69;8301253;28;20069;-62
2023/07/05 14:39:49;;;;;;;3.70;1.20;;;;;;;21.84;64.85;100304.06;8301314;28;20060;-62
2023/07/05 14:43:51;;;;;;;8.45;1.77;;;;;;;21.79;65.04;100301.09;8298454;28;20042;-63
2023/07/05 14:48:01;;;;;;;3.70;1.30;;;;;;;21.54;66.48;100297.34;8302257;28;20242;-62
2023/07/05 14:52:02;;;;;;;3.90;1.30;;;;;;;21.16;67.48;100297.22;8300158;28;20120;-62
2023/07/05 14:56:02;;;;;;;6.22;1.50;;;;;;;21.31;66.78;100310.72;8301021;28;20048;-62
2023/07/05 15:00:04;;;;;;;3.72;1.15;;;;;;;21.49;65.11;100310.03;8298537;28;20038;-62
2023/07/05 15:04:04;;;;;;;2.47;1.40;;;;;;;21.67;66.64;100313.81;8303053;28;20041;-61
2023/07/05 15:08:06;;;;;;;3.88;1.45;;;;;;;22.15;65.71;100312.38;8300746;28;20046;-61
2023/07/05 15:12:10;;;;;;;5.88;1.05;;;;;;;22.39;64.60;100305.22;8279990;28;20341;-61
2023/07/05 15:16:16;;;;;;;2.60;1.00;;;;;;;22.22;64.52;100312.31;8263884;28;20064;-61
2023/07/05 15:20:19;;;;;;;2.78;1.05;;;;;;;22.28;64.12;100323.28;8255550;28;20417;-62
2023/07/05 15:24:20;;;;;;;2.10;1.00;;;;;;;21.93;64.94;100316.50;8271636;28;20050;-61
2023/07/05 15:28:20;;;;;;;6.50;1.05;;;;;;;21.95;65.89;100319.84;8260750;28;20575;-61
2023/07/05 15:32:21;;;;;;;3.25;1.25;;;;;;;22.07;65.03;100309.00;8288020;28;20108;-61
2023/07/05 15:36:22;;;;;;;2.70;0.90;;;;;;;22.31;64.62;100300.81;8301517;28;20041;-61
2023/07/05 15:40:22;;;;;;;3.65;0.95;;;;;;;22.48;62.98;100301.97;8297538;28;20119;-61
2023/07/05 15:44:23;;;;;;;1.75;0.75;;;;;;;22.42;63.06;100313.88;8298453;28;20038;-61
2023/07/05 15:48:23;;;;;;;4.50;0.80;;;;;;;22.37;63.64;100316.47;8297458;28;20526;-61
2023/07/05 15:52:24;;;;;;;5.57;1.00;;;;;;;22.16;63.73;100333.31;8303250;28;20229;-62
2023/07/05 15:56:24;;;;;;;3.92;1.00;;;;;;;22.09;64.03;100327.00;8305039;28;20517;-61
2023/07/05 16:00:28;;;;;;;2.67;0.98;;;;;;;22.33;63.28;100337.25;8301738;28;20037;-61
2023/07/05 16:04:30;;;;;;;3.20;1.10;;;;;;;22.23;63.38;100336.88;8305297;28;20095;-61
2023/07/05 16:08:31;;;;;;;2.35;0.90;;;;;;;21.87;63.58;100342.16;8277843;28;20039;-62
2023/07/05 16:12:31;;;;;;;2.95;0.98;;;;;;;21.68;64.89;100336.69;8272985;28;20040;-62
2023/07/05 16:16:32;;;;;;;4.47;1.23;;;;;;;21.65;66.06;100346.19;8270665;28;20100;-61
2023/07/05 16:20:34;;;;;;;3.92;1.35;;;;;;;21.67;66.19;100360.59;8273476;28;20061;-62
2023/07/05 16:24:34;;;;;;;2.17;1.00;;;;;;;21.69;64.58;100361.22;8270258;28;20443;-62
2023/07/05 16:28:35;;;;;;;1.25;0.80;;;;;;;21.42;66.13;100364.25;8299514;28;20152;-62
2023/07/05 16:32:36;;;;;;;4.85;1.20;;;;;;;21.23;67.71;100377.81;8300119;28;20037;-61
2023/07/05 16:36:36;;;;;;;2.00;1.27;;;;;;;21.10;68.15;100388.81;8295994;28;20072;-61
2023/07/05 16:40:38;;;;;;;2.83;0.93;;;;;;;20.92;68.21;100379.47;8303960;28;20300;-61
2023/07/05 16:44:39;;;;;;;3.63;1.13;;;;;;;20.88;69.29;100394.69;8275341;28;20410;-61
2023/07/05 16:48:39;;;;;;;3.08;0.70;;;;;;;20.75;68.13;100400.16;8297473;28;20049;-62
2023/07/05 16:52:40;;;;;;;7.85;0.70;;;;;;;19.80;77.03;100393.91;8304553;28;20057;-61
2023/07/05 16:56:41;;;;;;;2.05;0.50;;;;;;;19.15;80.86;100387.91;8299041;28;20038;-61
2023/07/05 17:00:43;;;;;;;2.65;0.80;;;;;;;18.80;83.28;100378.78;8301392;28;20104;-61
2023/07/05 17:04:44;;;;;;;3.97;1.13;;;;;;;19.09;84.32;100384.09;8304017;28;20518;-61
2023/07/05 17:08:44;;;;;;;2.75;1.33;;;;;;;19.39;81.00;100371.06;8320558;28;20072;-62
2023/07/05 17:12:45;;;;;;;4.72;1.35;;;;;;;19.87;81.55;100377.44;8300393;28;20446;-61
2023/07/05 17:16:48;;;;;;;3.58;1.08;;;;;;;20.15;81.28;100376.34;8306156;28;20048;-61
2023/07/05 17:20:53;;;;;;;8.43;1.15;;;;;;;20.54;74.74;100370.13;8314289;28;20132;-61
2023/07/05 17:24:54;;;;;;;1.52;0.80;;;;;;;20.77;69.70;100367.84;8290772;28;20082;-61
2023/07/05 17:28:55;;;;;;;3.17;1.08;;;;;;;20.98;68.94;100359.44;8305889;28;20037;-61
2023/07/05 17:32:56;;;;;;;1.65;0.82;;;;;;;21.15;69.03;100367.03;8299321;28;20055;-61
2023/07/05 17:36:56;;;;;;;3.63;1.15;;;;;;;21.16;71.57;100354.13;8304267;28;20512;-61
2023/07/05 17:40:58;;;;;;;2.08;0.85;;;;;;;20.81;73.07;100371.84;8304044;28;20042;-61
2023/07/05 17:44:59;;;;;;;2.03;1.08;;;;;;;20.64;73.91;100362.31;8304567;28;20041;-61
2023/07/05 17:49:02;;;;;;;2.42;1.05;;;;;;;20.62;74.17;100369.94;8304875;28;20103;-62
2023/07/05 17:53:05;;;;;;;2.67;1.00;;;;;;;20.57;74.33;100377.94;8302582;28;20082;-61
2023/07/05 17:57:05;;;;;;;2.83;1.30;;;;;;;20.50;74.59;100386.19;8305575;28;20037;-62
2023/07/05 18:01:08;;;;;;;2.92;1.27;;;;;;;20.42;75.50;100393.75;8298639;28;20076;-61
2023/07/05 18:05:09;;;;;;;1.63;0.93;;;;;;;20.39;76.00;100391.41;8303287;28;20298;-61
2023/07/05 18:09:09;;;;;;;2.60;1.20;;;;;;;20.39;74.56;100384.03;8303777;28;20049;-61
2023/07/05 18:13:09;;;;;;;3.88;1.55;;;;;;;20.26;74.08;100394.13;8299601;28;20037;-61
2023/07/05 18:17:11;;;;;;;4.00;0.90;;;;;;;20.25;73.45;100397.94;8303097;28;20495;-61
2023/07/05 18:21:14;;;;;;;3.88;1.10;;;;;;;20.25;73.54;100397.94;8302673;28;20034;-61
2023/07/05 18:25:14;;;;;;;3.28;1.25;;;;;;;20.20;73.82;100400.44;8301994;28;20091;-61
2023/07/05 18:29:15;;;;;;;3.10;1.00;;;;;;;20.25;74.09;100403.44;8298909;28;20041;-61
2023/07/05 18:33:17;;;;;;;2.90;1.48;;;;;;;20.15;73.65;100408.44;8294922;28;20037;-61
2023/07/05 18:37:17;;;;;;;3.35;1.20;;;;;;;20.02;73.83;100402.84;8303217;28;20407;-61
2023/07/05 18:41:20;;;;;;;1.57;1.00;;;;;;;19.93;74.15;100417.81;8302218;28;20069;-61
2023/07/05 18:45:21;;;;;;;3.65;1.17;;;;;;;19.87;74.99;100410.38;8301003;28;20638;-61
2023/07/05 18:49:21;;;;;;;4.00;1.15;;;;;;;19.81;75.57;100416.69;8259695;28;20056;-61
2023/07/05 18:53:23;;;;;;;4.00;1.20;;;;;;;19.81;75.60;100412.03;8318429;28;20057;-61
2023/07/05 18:57:24;;;;;;;9.90;1.20;;;;;;;19.85;75.15;100409.75;8299052;28;20399;-61
2023/07/05 19:01:26;;;;;;;4.15;1.00;;;;;;;19.85;75.20;100420.72;8299800;28;20064;-61
2023/07/05 19:05:26;;;;;;;5.18;1.35;;;;;;;19.84;75.04;100416.28;8296893;28;20417;-61
2023/07/05 19:09:27;;;;;;;3.08;1.17;;;;;;;19.72;75.68;100424.22;8303482;28;20758;-61
2023/07/05 19:13:29;;;;;;;6.47;1.38;;;;;;;19.77;75.67;100421.75;8301007;28;20041;-61